Time;durP1;ratioP1;P1;durP2;ratioP2;P2;SDS_P1;SDS_P2;PMS_P1;PMS_P2;Temp;Humidity;BMP_temperature;BMP_pressure;BME280_temperature;BME280_humidity;BME280_pressure;Samples;Min_cycle;Max_cycle;Signal;HPM_P1;HPM_P2
2021/04/27 00:06:53;;;;;;;1.33;1.00;;;;;;;-3.02;88.37;101196.44;4782515;30;20073;-83
2021/04/27 00:26:40;;;;;;;1.80;1.20;;;;;;;-3.22;90.32;101188.69;4853788;29;20060;-83
2021/04/27 00:29:34;;;;;;;1.57;1.27;;;;;;;-3.30;89.77;101187.47;4888582;29;20069;-83
2021/04/27 00:32:26;;;;;;;1.70;1.20;;;;;;;-3.34;89.96;101183.00;4992984;28;20042;-84
2021/04/27 00:35:17;;;;;;;2.60;1.07;;;;;;;-3.35;91.02;101189.00;5025400;28;20117;-83
2021/04/27 00:37:55;;;;;;;1.50;1.20;;;;;;;-3.35;90.89;101180.34;5000635;28;20089;-83
2021/04/27 00:40:46;;;;;;;2.23;1.10;;;;;;;-3.42;91.30;101171.44;5026227;28;20034;-82
2021/04/27 00:43:28;;;;;;;3.10;1.07;;;;;;;-3.42;92.17;101177.50;4998816;28;20402;-82
2021/04/27 00:46:26;;;;;;;1.17;1.00;;;;;;;-3.45;91.72;101182.53;5032176;28;20046;-82
2021/04/27 00:53:40;;;;;;;1.80;1.30;;;;;;;-3.50;92.57;101180.56;5033799;28;20064;-84
2021/04/27 00:56:06;;;;;;;1.50;1.10;;;;;;;-3.61;92.82;101177.50;4984769;28;20030;-83
2021/04/27 00:58:33;;;;;;;1.10;0.97;;;;;;;-3.73;92.92;101180.41;5000294;28;20037;-83
2021/04/27 01:00:59;;;;;;;3.40;1.20;;;;;;;-3.81;92.67;101175.69;5017120;28;20038;-83
2021/04/27 01:03:26;;;;;;;1.10;1.00;;;;;;;-3.80;91.49;101178.34;4981686;28;20153;-83
2021/04/27 01:05:52;;;;;;;1.40;1.00;;;;;;;-3.81;90.97;101181.75;5031994;28;20053;-83
2021/04/27 01:08:29;;;;;;;1.80;1.37;;;;;;;-3.85;91.59;101176.41;5000081;28;20050;-83
2021/04/27 01:10:58;;;;;;;1.87;1.40;;;;;;;-3.79;93.20;101176.66;5016736;28;20022;-83
2021/04/27 01:13:53;;;;;;;1.10;1.00;;;;;;;-3.77;92.71;101180.22;5044477;28;20169;-83
2021/04/27 01:16:20;;;;;;;2.83;1.30;;;;;;;-3.75;92.70;101173.41;5013273;28;20038;-84
2021/04/27 01:18:50;;;;;;;1.63;1.17;;;;;;;-3.83;92.70;101165.31;5007684;28;20040;-83
2021/04/27 01:21:18;;;;;;;1.90;1.57;;;;;;;-3.96;92.23;101163.84;5016193;28;20110;-83
2021/04/27 01:23:57;;;;;;;2.00;1.17;;;;;;;-4.05;91.78;101171.19;5015900;28;20041;-84
2021/04/27 01:26:32;;;;;;;1.60;1.50;;;;;;;-4.14;91.85;101165.59;5008119;28;20041;-83
2021/04/27 01:28:59;;;;;;;1.50;1.17;;;;;;;-4.16;92.49;101156.91;5008144;28;20042;-83
2021/04/27 01:31:26;;;;;;;2.50;1.33;;;;;;;-4.10;91.16;101158.91;4983220;28;20037;-81
2021/04/27 01:33:53;;;;;;;2.63;1.07;;;;;;;-4.12;90.63;101153.66;4962555;28;20068;-82
2021/04/27 01:36:20;;;;;;;1.90;1.00;;;;;;;-4.07;89.65;101159.91;4961413;28;20423;-83
2021/04/27 01:38:46;;;;;;;1.30;1.13;;;;;;;-4.02;89.74;101163.59;4959078;28;20050;-84
2021/04/27 01:41:12;;;;;;;2.17;1.50;;;;;;;-3.97;90.31;101156.94;4972490;28;20046;-82
2021/04/27 01:43:39;;;;;;;1.63;1.10;;;;;;;-4.01;91.12;101154.16;4977912;28;20069;-83
2021/04/27 01:46:06;;;;;;;2.50;1.00;;;;;;;-4.00;91.16;101158.50;4974102;28;20069;-84
2021/04/27 01:48:34;;;;;;;1.20;0.90;;;;;;;-4.07;91.39;101154.75;4961432;28;20137;-82
2021/04/27 01:51:01;;;;;;;0.80;0.80;;;;;;;-4.14;91.24;101156.97;4977594;28;20567;-82
2021/04/27 01:53:27;;;;;;;2.70;1.10;;;;;;;-4.25;90.89;101152.19;4965073;28;20050;-84
2021/04/27 01:55:53;;;;;;;2.20;1.10;;;;;;;-4.33;91.28;101152.66;4960448;28;20100;-82
2021/04/27 01:58:19;;;;;;;1.33;0.90;;;;;;;-4.23;91.93;101153.97;4960955;28;20052;-83
2021/04/27 02:00:46;;;;;;;1.43;1.10;;;;;;;-4.26;92.46;101147.84;4990758;28;20104;-82
2021/04/27 02:03:12;;;;;;;1.83;1.00;;;;;;;-4.22;92.49;101150.56;4972288;28;20108;-82
2021/04/27 02:05:39;;;;;;;1.33;1.00;;;;;;;-4.18;92.96;101149.91;4961412;28;20038;-81
2021/04/27 02:08:06;;;;;;;1.27;1.10;;;;;;;-4.19;92.98;101148.16;4976712;28;20053;-82
2021/04/27 02:10:32;;;;;;;1.93;0.90;;;;;;;-4.27;93.12;101151.25;4976735;28;20056;-82
2021/04/27 02:13:06;;;;;;;2.00;1.17;;;;;;;-4.33;93.85;101156.13;4977551;28;20061;-82
2021/04/27 02:15:34;;;;;;;2.63;1.80;;;;;;;-4.37;94.58;101143.00;4984161;28;20038;-84
2021/04/27 02:18:20;;;;;;;1.23;0.90;;;;;;;-4.41;94.43;101147.13;4960741;28;20065;-82
2021/04/27 02:20:47;;;;;;;2.10;1.10;;;;;;;-4.42;94.55;101150.53;4961490;28;20044;-82
2021/04/27 02:23:16;;;;;;;2.40;1.27;;;;;;;-4.45;94.76;101145.22;4961851;28;20050;-83
2021/04/27 02:25:42;;;;;;;1.43;1.07;;;;;;;-4.44;94.68;101143.53;4976842;28;20073;-82
2021/04/27 02:28:09;;;;;;;1.40;1.07;;;;;;;-4.58;94.79;101141.16;4976235;28;20038;-83
2021/04/27 02:30:35;;;;;;;1.50;1.00;;;;;;;-4.72;95.25;101144.78;4975257;28;20038;-81
2021/04/27 02:33:02;;;;;;;2.83;1.30;;;;;;;-4.77;94.69;101140.22;4960596;28;20046;-83
2021/04/27 02:35:30;;;;;;;1.80;1.40;;;;;;;-4.77;93.69;101137.66;4958243;28;20109;-82
2021/04/27 02:37:56;;;;;;;2.63;1.00;;;;;;;-4.81;93.80;101134.91;4961276;28;20081;-82
2021/04/27 02:40:25;;;;;;;2.03;1.00;;;;;;;-4.79;92.85;101132.41;4960395;28;20046;-83
2021/04/27 02:42:53;;;;;;;1.30;1.13;;;;;;;-4.71;92.56;101133.66;4993219;28;20050;-82
2021/04/27 02:45:20;;;;;;;1.40;1.10;;;;;;;-4.63;92.81;101132.31;4978488;28;20046;-81
2021/04/27 02:47:47;;;;;;;1.43;1.17;;;;;;;-4.62;93.65;101128.06;4957943;28;20092;-83
2021/04/27 02:50:15;;;;;;;1.87;1.20;;;;;;;-4.65;93.96;101126.22;4960139;28;20038;-82
2021/04/27 02:52:41;;;;;;;3.80;1.40;;;;;;;-4.69;94.02;101128.59;4972585;28;20048;-82
2021/04/27 02:55:09;;;;;;;1.60;1.10;;;;;;;-4.80;94.68;101125.47;4963211;28;20049;-82
2021/04/27 02:57:35;;;;;;;1.17;1.00;;;;;;;-4.93;94.11;101136.88;4986123;28;20034;-82
2021/04/27 03:00:04;;;;;;;3.37;1.20;;;;;;;-4.99;93.93;101127.97;4984937;28;20049;-83
2021/04/27 03:02:31;;;;;;;3.63;0.93;;;;;;;-4.96;93.29;101121.28;4992049;28;20041;-82
2021/04/27 03:04:57;;;;;;;1.57;1.00;;;;;;;-4.85;92.43;101121.81;4961131;28;20045;-82
2021/04/27 03:07:23;;;;;;;1.57;1.00;;;;;;;-4.85;93.34;101119.22;4989185;28;20045;-82
2021/04/27 03:09:49;;;;;;;2.40;1.20;;;;;;;-4.92;94.01;101127.47;4993495;28;20057;-82
2021/04/27 03:12:15;;;;;;;1.30;1.10;;;;;;;-5.03;93.92;101120.91;4962059;28;20516;-83
2021/04/27 03:14:41;;;;;;;1.77;1.37;;;;;;;-5.14;94.36;101133.22;4961753;28;20057;-82
2021/04/27 03:17:08;;;;;;;1.97;1.40;;;;;;;-5.22;93.89;101122.53;4993960;28;20537;-82
2021/04/27 03:19:34;;;;;;;1.60;1.40;;;;;;;-5.27;93.79;101116.31;4963759;28;20042;-81
2021/04/27 03:22:01;;;;;;;3.80;1.17;;;;;;;-5.31;93.24;101118.63;4976987;28;20105;-81
2021/04/27 03:24:27;;;;;;;1.00;0.87;;;;;;;-5.33;93.29;101121.13;4977188;28;20573;-81
2021/04/27 03:26:53;;;;;;;2.40;1.10;;;;;;;-5.32;92.62;101127.16;4960717;28;20050;-82
2021/04/27 03:29:19;;;;;;;2.03;1.13;;;;;;;-5.28;91.85;101119.69;4973620;28;20521;-82
2021/04/27 03:32:37;;;;;;;1.57;1.10;;;;;;;-5.25;90.89;101124.09;4985927;28;20038;-83
2021/04/27 03:41:23;;;;;;;2.67;1.20;;;;;;;-5.18;92.78;101116.75;4986240;28;20100;-82
2021/04/27 03:49:47;;;;;;;3.07;1.30;;;;;;;-5.18;92.83;101124.47;4968989;29;20095;-81
2021/04/27 03:53:41;;;;;;;2.87;1.37;;;;;;;-5.21;92.84;101115.72;4966249;28;20090;-82
2021/04/27 04:02:24;;;;;;;1.80;1.10;;;;;;;-5.46;92.84;101122.22;4948249;29;20079;-82
2021/04/27 04:06:38;;;;;;;1.97;1.20;;;;;;;-5.42;91.39;101120.66;4900971;29;20033;-81
2021/04/27 04:10:31;;;;;;;2.73;1.23;;;;;;;-5.41;90.76;101125.88;4883368;29;20053;-82
2021/04/27 04:18:09;;;;;;;1.67;1.10;;;;;;;-5.20;93.02;101125.22;4983233;28;20034;-82
2021/04/27 04:21:47;;;;;;;3.67;1.43;;;;;;;-5.20;93.68;101125.22;4966609;28;20051;-83
2021/04/27 04:25:40;;;;;;;2.50;1.40;;;;;;;-5.31;94.83;101132.38;4993902;28;20042;-82
2021/04/27 04:29:35;;;;;;;1.73;1.60;;;;;;;-5.39;94.45;101134.56;5000853;28;20097;-81
2021/04/27 04:32:47;;;;;;;1.90;1.27;;;;;;;-5.33;94.36;101138.28;4991489;28;20109;-84
2021/04/27 04:36:07;;;;;;;1.03;0.93;;;;;;;-5.27;93.29;101139.47;5016725;28;20455;-83
2021/04/27 04:39:48;;;;;;;1.40;1.10;;;;;;;-5.27;92.49;101136.91;5012603;28;20046;-82
2021/04/27 04:42:38;;;;;;;2.67;1.30;;;;;;;-5.19;91.96;101140.75;5002915;28;20049;-82
2021/04/27 04:45:41;;;;;;;2.27;1.20;;;;;;;-5.13;91.43;101142.72;5005832;28;20109;-82
2021/04/27 04:49:06;;;;;;;4.57;1.50;;;;;;;-5.04;91.16;101139.72;4898142;29;20041;-82
2021/04/27 04:52:26;;;;;;;1.60;1.17;;;;;;;-5.02;91.31;101139.00;4907355;29;20100;-81
2021/04/27 04:56:04;;;;;;;2.37;1.30;;;;;;;-5.02;90.87;101141.59;4915189;29;20059;-80
2021/04/27 04:59:46;;;;;;;1.40;1.20;;;;;;;-4.99;90.41;101139.16;4904629;29;20097;-81
2021/04/27 05:03:02;;;;;;;2.23;1.30;;;;;;;-4.95;91.12;101140.22;4896841;29;20092;-81
2021/04/27 05:05:29;;;;;;;6.67;1.60;;;;;;;-4.94;91.85;101145.44;4857145;29;20080;-82
2021/04/27 05:08:08;;;;;;;3.03;1.50;;;;;;;-4.81;91.79;101145.22;4889292;29;20048;-80
2021/04/27 05:10:35;;;;;;;3.50;1.60;;;;;;;-4.76;92.54;101145.44;4894581;29;20529;-80
2021/04/27 05:13:01;;;;;;;1.90;1.17;;;;;;;-4.69;93.35;101144.94;4910055;29;20043;-82
2021/04/27 05:15:27;;;;;;;3.17;1.23;;;;;;;-4.56;93.63;101138.66;4893671;29;20528;-83
2021/04/27 05:17:54;;;;;;;1.60;1.27;;;;;;;-4.51;94.06;101146.63;4912670;29;20062;-81
2021/04/27 05:20:20;;;;;;;2.27;1.30;;;;;;;-4.48;94.25;101136.44;4893887;29;20043;-81
2021/04/27 05:22:47;;;;;;;1.80;1.20;;;;;;;-4.45;94.60;101147.81;4917437;29;20051;-81
2021/04/27 05:25:14;;;;;;;2.77;1.30;;;;;;;-4.32;94.32;101142.41;4913690;29;20065;-81
2021/04/27 05:27:40;;;;;;;1.67;1.40;;;;;;;-4.25;94.43;101141.88;4949828;28;20035;-80
2021/04/27 05:30:07;;;;;;;1.90;1.10;;;;;;;-4.26;94.38;101134.97;4897605;29;20711;-81
2021/04/27 05:32:33;;;;;;;3.13;1.43;;;;;;;-4.15;94.39;101137.16;5035304;23;20050;-94
2021/04/27 05:35:15;;;;;;;2.43;1.30;;;;;;;-4.02;94.64;101142.94;4983899;28;20093;-91
2021/04/27 05:38:01;;;;;;;1.40;1.20;;;;;;;-3.91;94.51;101142.56;4992162;28;20045;-93
2021/04/27 05:40:32;;;;;;;1.97;1.30;;;;;;;-3.82;95.19;101135.22;4989578;28;20029;-92
2021/04/27 05:43:06;;;;;;;1.57;1.30;;;;;;;-3.85;95.39;101137.69;5005572;28;20027;-93
2021/04/27 05:45:33;;;;;;;2.13;1.30;;;;;;;-3.78;96.79;101143.19;4963947;28;20054;-93
2021/04/27 05:48:02;;;;;;;5.33;1.60;;;;;;;-3.62;97.06;101144.72;5012285;28;20030;-93
2021/04/27 05:50:28;;;;;;;4.40;3.23;;;;;;;-3.24;96.38;101143.81;4967985;28;20048;-94
2021/04/27 05:52:55;;;;;;;6.53;3.80;;;;;;;-2.51;95.04;101145.97;5001549;28;20102;-94
2021/04/27 05:55:21;;;;;;;7.13;4.50;;;;;;;-1.69;90.16;101140.47;4999580;28;20030;-92
2021/04/27 05:57:50;;;;;;;9.77;4.73;;;;;;;-1.56;89.15;101134.03;5002950;28;20030;-93
2021/04/27 06:00:17;;;;;;;2.67;1.97;;;;;;;-1.74;91.04;101142.91;5014815;28;20050;-93
2021/04/27 06:02:44;;;;;;;2.40;1.97;;;;;;;-1.85;90.03;101145.91;4998287;28;20042;-94
2021/04/27 06:05:14;;;;;;;2.73;1.50;;;;;;;-1.85;91.22;101140.72;5000588;28;20041;-95
2021/04/27 06:07:40;;;;;;;3.07;1.60;;;;;;;-1.88;92.74;101141.50;4989286;28;20023;-93
2021/04/27 06:10:10;;;;;;;4.87;1.97;;;;;;;-1.83;93.12;101145.16;4979750;28;20027;-94
2021/04/27 06:12:36;;;;;;;2.33;1.70;;;;;;;-1.84;93.68;101134.75;4995480;28;20034;-93
2021/04/27 06:15:04;;;;;;;1.90;1.37;;;;;;;-1.83;94.11;101141.69;4964083;28;20027;-93
2021/04/27 06:17:35;;;;;;;3.17;1.63;;;;;;;-1.58;93.95;101141.75;4979944;28;20050;-94
2021/04/27 06:20:11;;;;;;;3.03;1.63;;;;;;;-0.13;88.97;101137.94;4998890;28;20026;-95
2021/04/27 06:22:38;;;;;;;1.80;1.30;;;;;;;2.79;73.53;101127.75;4996172;28;20026;-94
2021/04/27 06:25:09;;;;;;;2.43;1.40;;;;;;;5.04;59.84;101119.59;4962149;28;20030;-93
2021/04/27 06:27:36;;;;;;;2.57;1.10;;;;;;;6.25;59.04;101107.34;4999470;28;20122;-95
2021/04/27 06:30:08;;;;;;;3.83;1.30;;;;;;;6.92;56.38;101119.81;5015908;28;20026;-95
2021/04/27 06:32:35;;;;;;;2.00;1.30;;;;;;;8.34;55.21;101104.72;4983375;28;20035;-95
2021/04/27 06:35:09;;;;;;;3.57;1.50;;;;;;;8.72;45.47;101099.28;5009070;28;20102;-94
2021/04/27 06:37:43;;;;;;;1.83;1.00;;;;;;;8.88;47.44;101104.47;5001437;28;20034;-95
2021/04/27 06:40:17;;;;;;;;;;;;;;;9.14;44.17;101105.16;5002206;28;20030;-96
2021/04/27 06:44:18;;;;;;;3.20;1.33;;;;;;;8.69;46.28;101109.84;5008161;28;19933;-95
2021/04/27 06:48:12;;;;;;;3.10;1.27;;;;;;;7.48;51.09;101108.44;4999435;28;20099;-95
2021/04/27 06:51:46;;;;;;;;;;;;;;;;;;;;;
2021/04/27 06:55:01;;;;;;;2.67;1.20;;;;;;;7.21;47.47;101110.19;5010981;28;20046;-94
2021/04/27 06:58:58;;;;;;;1.90;1.00;;;;;;;7.17;45.97;101115.47;5009378;28;20045;-96
2021/04/27 07:02:26;;;;;;;1.37;0.97;;;;;;;7.23;46.01;101103.19;5008654;28;20037;-96
2021/04/27 07:05:18;;;;;;;;;;;;;;;;;;;;;
2021/04/27 07:24:47;;;;;;;2.00;1.00;;;;;;;8.30;43.16;101105.59;4950743;28;20055;-81
2021/04/27 07:27:13;;;;;;;1.23;1.00;;;;;;;8.65;42.22;101102.84;4946238;29;20504;-82
2021/04/27 07:29:39;;;;;;;18.40;9.13;;;;;;;8.86;40.26;101099.22;4929817;29;20047;-81
2021/04/27 07:32:07;;;;;;;24.50;13.10;;;;;;;9.01;38.73;101098.25;4926798;29;20416;-82
2021/04/27 07:34:33;;;;;;;0.90;0.80;;;;;;;8.80;34.52;101099.25;4923044;29;20047;-81
2021/04/27 07:37:00;;;;;;;1.60;1.10;;;;;;;8.36;35.48;101104.75;4924613;29;20075;-85
2021/04/27 07:39:26;;;;;;;2.33;1.60;;;;;;;8.79;35.81;101097.50;4923442;29;20040;-82
2021/04/27 07:41:52;;;;;;;1.00;0.80;;;;;;;8.52;35.46;101093.25;4940232;29;20587;-83
2021/04/27 07:44:18;;;;;;;1.17;0.80;;;;;;;8.87;35.75;101097.44;4924583;29;20063;-83
2021/04/27 07:46:45;;;;;;;0.98;0.85;;;;;;;8.85;35.22;101093.97;4927512;29;20074;-83
2021/04/27 07:49:11;;;;;;;1.05;0.80;;;;;;;9.24;36.64;101092.78;4923903;29;20060;-85
2021/04/27 07:51:39;;;;;;;1.20;0.80;;;;;;;9.24;33.63;101087.50;4935738;29;20130;-82
2021/04/27 07:54:06;;;;;;;1.08;0.80;;;;;;;9.31;35.96;101090.06;4934540;29;20103;-83
2021/04/27 07:56:33;;;;;;;1.65;0.93;;;;;;;9.33;36.41;101087.41;4934758;29;20054;-85
2021/04/27 07:59:03;;;;;;;2.38;0.80;;;;;;;9.18;32.11;101099.00;4922179;29;20045;-83
2021/04/27 08:01:34;;;;;;;9.38;1.38;;;;;;;8.51;34.00;101099.41;4924958;29;20275;-81
2021/04/27 08:04:02;;;;;;;1.00;0.70;;;;;;;8.59;34.86;101092.34;4954478;29;20051;-82
2021/04/27 08:06:28;;;;;;;18.10;2.60;;;;;;;8.88;34.36;101096.56;4910074;29;20047;-81
2021/04/27 08:08:58;;;;;;;1.52;0.90;;;;;;;8.49;31.90;101092.38;4924560;29;20039;-82
2021/04/27 08:11:26;;;;;;;2.63;0.90;;;;;;;8.44;31.21;101084.53;4926684;29;20531;-80
2021/04/27 08:13:52;;;;;;;0.95;0.70;;;;;;;8.65;34.89;101084.41;4928072;29;20049;-83
2021/04/27 08:16:19;;;;;;;2.03;0.90;;;;;;;9.16;34.40;101082.28;4928741;29;20062;-85
2021/04/27 08:18:46;;;;;;;2.33;0.90;;;;;;;9.32;33.97;101075.13;4936450;29;20051;-82
2021/04/27 08:21:13;;;;;;;1.75;0.80;;;;;;;9.44;32.51;101090.88;4934438;29;20115;-83
2021/04/27 08:23:41;;;;;;;0.90;0.80;;;;;;;9.47;32.08;101077.63;4932503;28;20054;-83
2021/04/27 08:26:10;;;;;;;1.27;0.70;;;;;;;9.61;32.25;101081.91;4936234;29;20051;-83
2021/04/27 08:28:37;;;;;;;0.90;0.68;;;;;;;9.80;30.50;101080.84;4936951;29;20134;-83
2021/04/27 08:31:03;;;;;;;0.60;0.57;;;;;;;9.38;31.62;101096.19;4913837;29;20071;-83
2021/04/27 08:33:33;;;;;;;23.58;2.97;;;;;;;9.80;31.96;101084.34;4929891;29;20039;-83
2021/04/27 08:35:59;;;;;;;0.82;0.80;;;;;;;10.05;32.44;101078.78;4954611;29;20122;-83
2021/04/27 08:38:26;;;;;;;0.57;0.50;;;;;;;9.74;30.97;101091.44;4936219;29;20054;-83
2021/04/27 08:40:54;;;;;;;0.65;0.60;;;;;;;9.77;30.16;101094.06;4930562;29;20043;-84
2021/04/27 08:43:21;;;;;;;0.50;0.50;;;;;;;9.63;28.20;101080.13;4923412;29;20055;-84
2021/04/27 08:45:48;;;;;;;1.15;0.70;;;;;;;9.81;27.10;101083.44;4919407;29;20053;-83
2021/04/27 08:48:15;;;;;;;0.50;0.50;;;;;;;9.82;30.87;101082.56;4921129;29;20035;-82
2021/04/27 08:50:44;;;;;;;1.50;0.60;;;;;;;10.21;29.17;101083.00;4953748;28;20058;-84
2021/04/27 08:53:11;;;;;;;0.88;0.70;;;;;;;9.85;28.95;101082.53;4935195;29;20051;-83
2021/04/27 08:55:37;;;;;;;0.70;0.70;;;;;;;10.28;33.63;101071.50;4935295;29;20134;-84
2021/04/27 08:58:10;;;;;;;0.65;0.60;;;;;;;10.04;28.95;101074.41;4956485;28;20126;-84
2021/04/27 09:00:37;;;;;;;0.77;0.77;;;;;;;10.01;28.75;101070.06;4919456;29;20591;-84
2021/04/27 09:03:07;;;;;;;0.93;0.60;;;;;;;9.86;28.86;101078.13;4923879;29;20532;-85
2021/04/27 09:05:34;;;;;;;0.65;0.65;;;;;;;10.33;30.72;101069.66;4934994;28;20097;-83
2021/04/27 09:08:34;;;;;;;0.50;0.50;;;;;;;10.71;30.13;101055.94;4932149;29;20047;-84
2021/04/27 09:11:01;;;;;;;0.93;0.60;;;;;;;10.80;28.00;101056.69;4950211;29;20067;-85
2021/04/27 09:13:27;;;;;;;1.08;0.85;;;;;;;10.99;28.16;101055.50;4949446;29;20055;-83
2021/04/27 09:15:54;;;;;;;0.70;0.60;;;;;;;10.96;28.47;101052.94;4935894;29;20147;-83
2021/04/27 09:18:29;;;;;;;1.30;0.90;;;;;;;10.60;27.62;101049.94;4934370;29;20118;-83
2021/04/27 09:21:00;;;;;;;1.17;0.63;;;;;;;10.38;28.78;101048.50;4936771;29;20452;-86
2021/04/27 09:23:27;;;;;;;1.73;0.70;;;;;;;10.18;28.29;101045.22;4914126;29;20043;-82
2021/04/27 09:26:10;;;;;;;1.67;0.80;;;;;;;10.26;27.81;101040.75;4950294;28;20154;-82
2021/04/27 09:28:47;;;;;;;1.85;0.98;;;;;;;10.46;29.39;101036.06;4924377;29;20047;-83
2021/04/27 09:31:20;;;;;;;1.10;0.93;;;;;;;9.71;29.15;101031.66;4928380;29;20055;-84
2021/04/27 09:33:47;;;;;;;1.67;0.90;;;;;;;10.21;29.61;101029.31;4948039;29;20090;-81
2021/04/27 09:36:21;;;;;;;1.45;0.88;;;;;;;10.84;31.72;101035.47;4957809;28;20062;-82
2021/04/27 09:38:54;;;;;;;1.20;0.90;;;;;;;11.21;29.89;101037.53;4918453;29;20072;-82
2021/04/27 09:41:26;;;;;;;1.85;1.10;;;;;;;10.62;28.25;101029.66;4912048;29;20675;-82
2021/04/27 09:43:53;;;;;;;1.50;1.00;;;;;;;10.99;28.09;101026.44;4923612;29;20052;-81
2021/04/27 09:46:21;;;;;;;1.00;0.77;;;;;;;10.80;28.90;101032.91;4921103;29;20498;-85
2021/04/27 09:48:54;;;;;;;3.05;1.13;;;;;;;10.57;28.28;101020.03;4916230;29;20489;-84
2021/04/27 09:51:35;;;;;;;2.35;1.08;;;;;;;11.25;29.59;101026.00;4929242;29;20047;-85
2021/04/27 09:54:06;;;;;;;1.20;1.00;;;;;;;11.52;30.22;101019.34;4925259;29;20051;-84
2021/04/27 09:56:46;;;;;;;3.38;1.60;;;;;;;11.30;26.79;101016.22;4931055;29;20135;-83
2021/04/27 09:59:42;;;;;;;1.58;1.00;;;;;;;11.21;27.67;101011.09;4946888;28;20046;-86
2021/04/27 10:02:09;;;;;;;2.08;1.05;;;;;;;11.31;28.73;101001.22;4947533;29;20039;-86
2021/04/27 10:04:38;;;;;;;1.48;1.10;;;;;;;11.28;28.71;101008.31;4932906;29;20047;-84
2021/04/27 10:07:04;;;;;;;1.38;1.10;;;;;;;11.10;30.49;100998.06;4935329;29;20043;-84
2021/04/27 10:09:32;;;;;;;2.20;1.23;;;;;;;11.07;30.88;101002.50;4932289;29;20047;-85
2021/04/27 10:12:00;;;;;;;1.70;1.48;;;;;;;11.05;30.53;100996.38;4933607;29;20821;-84
2021/04/27 10:14:26;;;;;;;2.55;1.23;;;;;;;10.85;29.11;100989.66;4935214;29;20111;-83
2021/04/27 10:16:53;;;;;;;2.03;1.10;;;;;;;10.87;27.77;100982.56;4935353;29;20070;-86
2021/04/27 10:19:19;;;;;;;1.45;1.00;;;;;;;11.36;28.32;100978.22;4948630;29;20047;-85
2021/04/27 10:21:48;;;;;;;1.15;0.90;;;;;;;11.95;30.16;100973.53;4937559;29;20778;-84
2021/04/27 10:24:16;;;;;;;17.38;3.50;;;;;;;11.93;27.78;100981.50;4925367;29;20477;-84
2021/04/27 10:26:44;;;;;;;1.55;1.05;;;;;;;11.38;28.24;100979.91;4919777;29;20535;-86
2021/04/27 10:29:24;;;;;;;1.80;1.30;;;;;;;10.94;26.67;100978.06;4907812;29;20063;-84
2021/04/27 10:32:20;;;;;;;1.45;1.05;;;;;;;11.39;28.48;100963.13;4914164;29;20039;-84
2021/04/27 10:34:58;;;;;;;1.30;0.90;;;;;;;11.99;26.59;100969.91;4935716;29;20070;-83
2021/04/27 10:37:29;;;;;;;1.92;1.00;;;;;;;12.09;26.66;100974.09;4926990;29;20047;-84
2021/04/27 10:39:55;;;;;;;1.13;1.00;;;;;;;11.55;26.39;100966.38;4953223;28;20047;-85
2021/04/27 10:42:29;;;;;;;1.40;0.80;;;;;;;11.81;25.74;100950.84;4940615;29;20055;-84
2021/04/27 10:45:07;;;;;;;0.82;0.80;;;;;;;12.16;26.74;100951.00;4959491;28;20548;-85
2021/04/27 10:47:42;;;;;;;1.20;0.98;;;;;;;11.28;26.92;100952.78;4959772;28;20102;-84
2021/04/27 10:50:25;;;;;;;1.30;0.90;;;;;;;11.64;26.09;100939.72;4951047;29;20047;-84
2021/04/27 10:52:51;;;;;;;1.25;0.80;;;;;;;11.60;24.34;100945.97;4926162;29;20050;-83
2021/04/27 10:55:29;;;;;;;1.30;0.80;;;;;;;11.82;25.36;100939.38;4958994;29;20073;-86
2021/04/27 10:57:58;;;;;;;1.08;0.98;;;;;;;11.53;24.46;100933.78;4931325;29;20042;-84
2021/04/27 11:00:42;;;;;;;1.20;0.85;;;;;;;10.96;24.00;100936.59;4958372;28;20048;-84
2021/04/27 11:03:27;;;;;;;1.23;0.90;;;;;;;11.71;25.25;100928.09;4935449;29;20146;-84
2021/04/27 11:06:14;;;;;;;1.00;0.88;;;;;;;11.89;25.36;100931.28;4948867;29;20043;-84
2021/04/27 11:09:11;;;;;;;1.83;0.90;;;;;;;12.19;24.97;100935.94;4931579;29;20051;-86
2021/04/27 11:12:28;;;;;;;0.70;0.70;;;;;;;12.28;25.34;100927.78;4935544;29;20539;-85
2021/04/27 11:15:29;;;;;;;1.25;1.00;;;;;;;11.91;23.55;100913.59;4951692;29;20050;-85
2021/04/27 11:18:22;;;;;;;1.02;0.95;;;;;;;11.83;24.07;100927.88;4940031;29;20039;-87
2021/04/27 11:21:12;;;;;;;2.25;1.20;;;;;;;12.34;26.91;100924.94;4965182;28;20055;-85
2021/04/27 11:23:52;;;;;;;2.83;0.90;;;;;;;12.10;24.78;100915.78;4941492;29;20495;-84
2021/04/27 11:27:03;;;;;;;2.05;1.23;;;;;;;11.47;24.64;100908.31;4950826;29;20043;-85
2021/04/27 11:30:18;;;;;;;1.35;0.77;;;;;;;12.09;26.11;100918.47;4960181;28;20058;-82
2021/04/27 11:33:09;;;;;;;2.20;0.95;;;;;;;12.20;26.37;100916.47;4968100;28;20043;-85
2021/04/27 11:37:10;;;;;;;1.42;1.00;;;;;;;12.19;24.93;100912.09;4921560;29;20694;-82
2021/04/27 11:39:36;;;;;;;1.05;0.80;;;;;;;11.79;25.21;100910.28;4997193;23;20038;-85
2021/04/27 11:42:03;;;;;;;1.98;1.27;;;;;;;12.11;28.42;100912.25;4964944;28;20512;-84
2021/04/27 11:44:32;;;;;;;0.95;0.90;;;;;;;12.27;27.15;100893.34;4933551;28;20054;-84
2021/04/27 11:47:15;;;;;;;1.40;1.00;;;;;;;12.21;26.66;100896.16;4944047;28;20078;-85
2021/04/27 11:49:55;;;;;;;1.90;1.20;;;;;;;12.61;26.32;100885.44;4931276;28;20165;-85
2021/04/27 11:53:04;;;;;;;1.67;0.82;;;;;;;12.57;26.37;100881.13;4951919;28;20810;-85
2021/04/27 11:55:40;;;;;;;1.10;1.00;;;;;;;12.47;25.01;100871.69;4962848;28;20145;-85
2021/04/27 11:58:18;;;;;;;1.70;1.02;;;;;;;11.96;24.65;100874.66;4933237;29;20031;-85
2021/04/27 12:00:50;;;;;;;4.28;1.10;;;;;;;12.51;26.17;100873.34;4932113;29;20368;-86
2021/04/27 12:03:33;;;;;;;1.42;0.77;;;;;;;12.28;28.10;100884.50;4917480;29;20066;-85
2021/04/27 12:06:14;;;;;;;1.42;1.20;;;;;;;12.34;27.31;100887.00;4944462;29;20050;-85
2021/04/27 12:08:47;;;;;;;1.35;1.10;;;;;;;12.74;27.85;100870.97;4940945;29;20523;-87
2021/04/27 12:11:20;;;;;;;1.77;1.05;;;;;;;13.07;27.07;100863.91;4940314;28;20061;-85
2021/04/27 12:13:54;;;;;;;2.67;1.08;;;;;;;13.00;26.26;100856.16;4920910;29;20044;-88
2021/04/27 12:16:41;;;;;;;1.50;1.20;;;;;;;12.59;25.02;100853.69;4947353;28;20054;-86
2021/04/27 12:19:08;;;;;;;1.50;1.08;;;;;;;12.70;25.84;100848.13;4935175;29;20130;-85
2021/04/27 12:21:39;;;;;;;1.98;1.38;;;;;;;12.70;27.04;100853.41;4933286;29;20058;-86
2021/04/27 12:24:18;;;;;;;2.33;1.00;;;;;;;12.39;25.39;100848.88;4919843;29;20075;-85
2021/04/27 12:26:50;;;;;;;1.40;1.10;;;;;;;12.92;28.64;100857.22;4942377;29;20051;-85
2021/04/27 12:29:22;;;;;;;3.33;1.40;;;;;;;12.64;27.33;100845.63;4932890;29;20050;-87
2021/04/27 12:31:50;;;;;;;2.72;1.58;;;;;;;12.56;25.68;100852.91;4942435;29;20674;-84
2021/04/27 12:34:17;;;;;;;2.42;1.30;;;;;;;13.07;27.49;100842.69;4944567;28;20035;-87
2021/04/27 12:36:46;;;;;;;1.85;1.35;;;;;;;13.57;27.19;100842.16;4919629;29;20087;-84
2021/04/27 12:39:22;;;;;;;3.65;1.90;;;;;;;13.54;25.46;100848.44;4923131;29;20036;-87
2021/04/27 12:41:50;;;;;;;3.78;1.60;;;;;;;13.17;27.12;100835.31;4936397;29;20048;-87
2021/04/27 12:44:36;;;;;;;1.75;1.27;;;;;;;12.92;25.18;100827.19;4937598;28;20051;-85
2021/04/27 12:47:04;;;;;;;1.90;1.60;;;;;;;13.00;27.52;100835.78;4926528;29;20043;-86
2021/04/27 12:49:33;;;;;;;1.75;1.48;;;;;;;13.18;27.61;100823.81;4938607;29;20536;-86
2021/04/27 12:52:12;;;;;;;2.50;1.65;;;;;;;13.12;26.54;100819.56;4938280;29;20066;-88
2021/04/27 12:54:42;;;;;;;3.03;1.95;;;;;;;13.09;27.55;100813.44;4939051;29;20075;-87
2021/04/27 12:57:16;;;;;;;2.45;1.50;;;;;;;13.20;26.49;100806.97;4938975;29;20051;-84
2021/04/27 12:59:44;;;;;;;2.33;1.60;;;;;;;13.09;25.22;100797.53;4922576;29;20107;-85
2021/04/27 13:02:15;;;;;;;2.67;1.50;;;;;;;12.94;25.58;100797.03;4936208;28;20043;-87
2021/04/27 13:04:44;;;;;;;3.50;1.80;;;;;;;12.87;27.16;100810.53;4927391;29;20107;-86
2021/04/27 13:07:40;;;;;;;2.20;1.73;;;;;;;12.60;27.75;100805.06;4949169;29;20493;-84
2021/04/27 13:10:13;;;;;;;2.45;1.60;;;;;;;12.71;26.93;100807.44;4907842;29;20043;-84
2021/04/27 13:12:44;;;;;;;2.60;1.50;;;;;;;12.80;28.12;100806.31;4950140;28;20062;-88
2021/04/27 13:15:18;;;;;;;2.38;1.63;;;;;;;13.00;27.90;100809.28;4926878;28;20039;-86
2021/04/27 13:17:45;;;;;;;2.63;1.65;;;;;;;12.76;26.69;100808.16;4936583;29;20072;-84
2021/04/27 13:20:22;;;;;;;2.38;1.42;;;;;;;12.71;28.91;100794.19;4935803;29;20039;-84
2021/04/27 13:23:00;;;;;;;2.50;1.50;;;;;;;12.96;26.15;100783.78;4947315;29;20130;-84
2021/04/27 13:25:29;;;;;;;4.03;1.40;;;;;;;13.13;28.74;100768.25;4931918;29;20071;-85